sensor_id;sensor_type;location;lat;lon;timestamp;P1;durP1;ratioP1;P2;durP2;ratioP2
43014;SDS011;28637;50.554;7.032;2023-02-10T00:02:19;21.15;;;9.52;;
43014;SDS011;28637;50.554;7.032;2023-02-10T00:07:19;19.38;;;10.07;;
43014;SDS011;28637;50.554;7.032;2023-02-10T00:12:20;21.67;;;9.90;;
43014;SDS011;28637;50.554;7.032;2023-02-10T00:17:20;20.60;;;9.68;;
43014;SDS011;28637;50.554;7.032;2023-02-10T00:22:21;22.13;;;10.77;;
43014;SDS011;28637;50.554;7.032;2023-02-10T00:27:22;21.50;;;10.27;;
43014;SDS011;28637;50.554;7.032;2023-02-10T00:37:24;24.17;;;9.80;;
43014;SDS011;28637;50.554;7.032;2023-02-10T00:42:25;19.75;;;10.27;;
43014;SDS011;28637;50.554;7.032;2023-02-10T00:47:25;21.25;;;9.85;;
43014;SDS011;28637;50.554;7.032;2023-02-10T00:52:26;26.42;;;10.32;;
43014;SDS011;28637;50.554;7.032;2023-02-10T00:57:27;22.50;;;10.50;;
43014;SDS011;28637;50.554;7.032;2023-02-10T01:02:28;21.08;;;10.50;;
43014;SDS011;28637;50.554;7.032;2023-02-10T01:07:28;22.38;;;10.30;;
43014;SDS011;28637;50.554;7.032;2023-02-10T01:12:29;23.02;;;11.13;;
43014;SDS011;28637;50.554;7.032;2023-02-10T01:17:30;21.30;;;10.23;;
43014;SDS011;28637;50.554;7.032;2023-02-10T01:22:33;25.48;;;10.93;;
43014;SDS011;28637;50.554;7.032;2023-02-10T01:27:35;28.17;;;11.27;;
43014;SDS011;28637;50.554;7.032;2023-02-10T01:32:35;27.55;;;11.60;;
43014;SDS011;28637;50.554;7.032;2023-02-10T01:37:36;20.40;;;10.23;;
43014;SDS011;28637;50.554;7.032;2023-02-10T01:42:37;21.83;;;10.53;;
43014;SDS011;28637;50.554;7.032;2023-02-10T01:47:42;21.13;;;10.27;;
43014;SDS011;28637;50.554;7.032;2023-02-10T01:52:44;21.48;;;10.40;;
43014;SDS011;28637;50.554;7.032;2023-02-10T02:02:48;22.88;;;10.65;;
43014;SDS011;28637;50.554;7.032;2023-02-10T02:07:49;23.52;;;11.18;;
43014;SDS011;28637;50.554;7.032;2023-02-10T02:12:57;29.37;;;12.97;;
43014;SDS011;28637;50.554;7.032;2023-02-10T02:18:12;28.30;;;12.25;;
43014;SDS011;28637;50.554;7.032;2023-02-10T02:33:27;27.13;;;11.65;;
43014;SDS011;28637;50.554;7.032;2023-02-10T02:38:39;19.85;;;10.45;;
43014;SDS011;28637;50.554;7.032;2023-02-10T02:43:41;27.10;;;12.57;;
43014;SDS011;28637;50.554;7.032;2023-02-10T02:48:58;28.48;;;11.57;;
43014;SDS011;28637;50.554;7.032;2023-02-10T02:54:16;27.10;;;12.27;;
43014;SDS011;28637;50.554;7.032;2023-02-10T03:04:30;31.10;;;13.13;;
43014;SDS011;28637;50.554;7.032;2023-02-10T03:09:33;31.40;;;12.52;;
43014;SDS011;28637;50.554;7.032;2023-02-10T03:14:35;27.85;;;11.77;;
43014;SDS011;28637;50.554;7.032;2023-02-10T03:19:35;28.35;;;12.05;;
43014;SDS011;28637;50.554;7.032;2023-02-10T03:24:37;25.23;;;11.20;;
43014;SDS011;28637;50.554;7.032;2023-02-10T03:29:38;25.50;;;11.82;;
43014;SDS011;28637;50.554;7.032;2023-02-10T03:34:38;27.58;;;12.48;;
43014;SDS011;28637;50.554;7.032;2023-02-10T03:39:39;27.98;;;11.60;;
43014;SDS011;28637;50.554;7.032;2023-02-10T03:44:39;26.92;;;11.50;;
43014;SDS011;28637;50.554;7.032;2023-02-10T03:49:40;22.98;;;11.65;;
43014;SDS011;28637;50.554;7.032;2023-02-10T03:54:41;27.55;;;12.80;;
43014;SDS011;28637;50.554;7.032;2023-02-10T03:59:41;31.15;;;12.85;;
43014;SDS011;28637;50.554;7.032;2023-02-10T04:04:42;26.55;;;12.43;;
43014;SDS011;28637;50.554;7.032;2023-02-10T04:09:43;27.40;;;13.23;;
43014;SDS011;28637;50.554;7.032;2023-02-10T04:14:44;29.15;;;13.43;;
43014;SDS011;28637;50.554;7.032;2023-02-10T04:19:44;31.05;;;13.23;;
43014;SDS011;28637;50.554;7.032;2023-02-10T04:24:45;33.67;;;13.57;;
43014;SDS011;28637;50.554;7.032;2023-02-10T04:29:45;34.45;;;13.30;;
43014;SDS011;28637;50.554;7.032;2023-02-10T04:34:46;30.08;;;13.25;;
43014;SDS011;28637;50.554;7.032;2023-02-10T04:39:47;31.63;;;12.43;;
43014;SDS011;28637;50.554;7.032;2023-02-10T04:44:48;28.73;;;14.23;;
43014;SDS011;28637;50.554;7.032;2023-02-10T04:49:48;29.00;;;12.52;;
43014;SDS011;28637;50.554;7.032;2023-02-10T04:54:49;26.77;;;12.05;;
43014;SDS011;28637;50.554;7.032;2023-02-10T04:59:49;31.42;;;12.27;;
43014;SDS011;28637;50.554;7.032;2023-02-10T05:04:50;31.85;;;12.63;;
43014;SDS011;28637;50.554;7.032;2023-02-10T05:09:51;30.05;;;12.32;;
43014;SDS011;28637;50.554;7.032;2023-02-10T05:14:52;25.40;;;11.40;;
43014;SDS011;28637;50.554;7.032;2023-02-10T05:19:53;31.33;;;12.48;;
43014;SDS011;28637;50.554;7.032;2023-02-10T05:24:54;25.55;;;11.80;;
43014;SDS011;28637;50.554;7.032;2023-02-10T05:29:56;28.77;;;11.90;;
43014;SDS011;28637;50.554;7.032;2023-02-10T05:34:57;29.35;;;12.35;;
43014;SDS011;28637;50.554;7.032;2023-02-10T05:39:57;32.10;;;12.77;;
43014;SDS011;28637;50.554;7.032;2023-02-10T05:44:58;25.90;;;11.07;;
43014;SDS011;28637;50.554;7.032;2023-02-10T05:49:59;26.48;;;11.45;;
43014;SDS011;28637;50.554;7.032;2023-02-10T05:55:00;30.00;;;11.43;;
43014;SDS011;28637;50.554;7.032;2023-02-10T06:00:02;27.15;;;11.05;;
43014;SDS011;28637;50.554;7.032;2023-02-10T06:05:04;29.13;;;11.32;;
43014;SDS011;28637;50.554;7.032;2023-02-10T06:10:06;24.88;;;11.48;;
43014;SDS011;28637;50.554;7.032;2023-02-10T06:15:07;25.50;;;10.68;;
43014;SDS011;28637;50.554;7.032;2023-02-10T06:20:07;29.23;;;11.98;;
43014;SDS011;28637;50.554;7.032;2023-02-10T06:25:08;30.90;;;12.48;;
43014;SDS011;28637;50.554;7.032;2023-02-10T06:30:09;30.25;;;12.00;;
43014;SDS011;28637;50.554;7.032;2023-02-10T06:35:10;32.93;;;13.93;;
43014;SDS011;28637;50.554;7.032;2023-02-10T06:40:11;37.63;;;17.45;;
43014;SDS011;28637;50.554;7.032;2023-02-10T06:45:12;35.23;;;15.90;;
43014;SDS011;28637;50.554;7.032;2023-02-10T06:50:13;30.08;;;12.52;;
43014;SDS011;28637;50.554;7.032;2023-02-10T06:55:13;30.98;;;12.82;;
43014;SDS011;28637;50.554;7.032;2023-02-10T07:00:14;30.27;;;12.35;;
43014;SDS011;28637;50.554;7.032;2023-02-10T07:05:15;33.47;;;11.63;;
43014;SDS011;28637;50.554;7.032;2023-02-10T07:10:17;33.50;;;12.13;;
43014;SDS011;28637;50.554;7.032;2023-02-10T07:15:18;33.40;;;10.90;;
43014;SDS011;28637;50.554;7.032;2023-02-10T07:20:19;29.83;;;10.95;;
43014;SDS011;28637;50.554;7.032;2023-02-10T07:25:20;33.63;;;11.50;;
43014;SDS011;28637;50.554;7.032;2023-02-10T07:30:21;28.90;;;11.10;;
43014;SDS011;28637;50.554;7.032;2023-02-10T07:35:22;32.17;;;11.07;;
43014;SDS011;28637;50.554;7.032;2023-02-10T07:40:23;32.05;;;11.00;;
43014;SDS011;28637;50.554;7.032;2023-02-10T07:45:23;32.85;;;11.05;;
43014;SDS011;28637;50.554;7.032;2023-02-10T07:50:26;28.98;;;11.27;;
43014;SDS011;28637;50.554;7.032;2023-02-10T07:55:26;32.17;;;10.88;;
43014;SDS011;28637;50.554;7.032;2023-02-10T08:00:27;34.90;;;11.48;;
43014;SDS011;28637;50.554;7.032;2023-02-10T08:05:28;31.27;;;10.90;;
43014;SDS011;28637;50.554;7.032;2023-02-10T08:10:29;26.25;;;9.68;;
43014;SDS011;28637;50.554;7.032;2023-02-10T08:15:29;30.30;;;10.23;;
43014;SDS011;28637;50.554;7.032;2023-02-10T08:20:30;28.13;;;9.95;;
43014;SDS011;28637;50.554;7.032;2023-02-10T08:25:31;28.47;;;10.00;;
43014;SDS011;28637;50.554;7.032;2023-02-10T08:30:31;27.30;;;10.00;;
43014;SDS011;28637;50.554;7.032;2023-02-10T08:35:34;28.58;;;10.40;;
43014;SDS011;28637;50.554;7.032;2023-02-10T08:40:35;28.40;;;9.75;;
43014;SDS011;28637;50.554;7.032;2023-02-10T08:45:39;31.03;;;10.10;;
43014;SDS011;28637;50.554;7.032;2023-02-10T08:50:40;30.63;;;10.88;;
43014;SDS011;28637;50.554;7.032;2023-02-10T08:55:41;25.52;;;10.55;;
43014;SDS011;28637;50.554;7.032;2023-02-10T09:00:41;25.83;;;9.88;;
43014;SDS011;28637;50.554;7.032;2023-02-10T09:05:42;26.48;;;9.25;;
43014;SDS011;28637;50.554;7.032;2023-02-10T09:10:45;22.63;;;8.80;;
43014;SDS011;28637;50.554;7.032;2023-02-10T09:15:47;22.88;;;8.82;;
43014;SDS011;28637;50.554;7.032;2023-02-10T09:20:47;23.83;;;9.27;;
43014;SDS011;28637;50.554;7.032;2023-02-10T09:25:54;21.98;;;9.10;;
43014;SDS011;28637;50.554;7.032;2023-02-10T09:30:56;23.33;;;9.35;;
43014;SDS011;28637;50.554;7.032;2023-02-10T09:35:57;21.23;;;8.95;;
43014;SDS011;28637;50.554;7.032;2023-02-10T09:46:15;21.92;;;8.95;;
43014;SDS011;28637;50.554;7.032;2023-02-10T09:51:43;20.52;;;8.73;;
43014;SDS011;28637;50.554;7.032;2023-02-10T09:56:50;22.75;;;8.75;;
43014;SDS011;28637;50.554;7.032;2023-02-10T10:01:55;21.25;;;8.82;;
43014;SDS011;28637;50.554;7.032;2023-02-10T10:07:06;20.70;;;8.80;;
43014;SDS011;28637;50.554;7.032;2023-02-10T10:12:19;23.80;;;9.38;;
43014;SDS011;28637;50.554;7.032;2023-02-10T10:38:58;19.52;;;8.45;;
43014;SDS011;28637;50.554;7.032;2023-02-10T10:44:28;20.15;;;7.57;;
43014;SDS011;28637;50.554;7.032;2023-02-10T10:49:31;15.85;;;7.50;;
43014;SDS011;28637;50.554;7.032;2023-02-10T10:54:32;15.98;;;7.47;;
43014;SDS011;28637;50.554;7.032;2023-02-10T10:59:43;14.70;;;7.28;;
43014;SDS011;28637;50.554;7.032;2023-02-10T11:05:11;17.27;;;7.20;;
43014;SDS011;28637;50.554;7.032;2023-02-10T11:10:48;11.88;;;6.50;;
43014;SDS011;28637;50.554;7.032;2023-02-10T11:16:03;16.83;;;7.13;;
43014;SDS011;28637;50.554;7.032;2023-02-10T11:21:08;16.42;;;7.65;;
43014;SDS011;28637;50.554;7.032;2023-02-10T11:26:17;13.80;;;6.90;;
43014;SDS011;28637;50.554;7.032;2023-02-10T11:31:33;12.07;;;6.47;;
43014;SDS011;28637;50.554;7.032;2023-02-10T11:36:37;12.57;;;6.53;;
43014;SDS011;28637;50.554;7.032;2023-02-10T11:41:39;13.93;;;6.60;;
43014;SDS011;28637;50.554;7.032;2023-02-10T11:46:40;13.55;;;6.53;;
43014;SDS011;28637;50.554;7.032;2023-02-10T11:51:50;11.82;;;6.68;;
43014;SDS011;28637;50.554;7.032;2023-02-10T12:07:58;12.88;;;6.55;;
43014;SDS011;28637;50.554;7.032;2023-02-10T12:24:09;14.15;;;6.63;;
43014;SDS011;28637;50.554;7.032;2023-02-10T12:29:13;12.32;;;6.70;;
43014;SDS011;28637;50.554;7.032;2023-02-10T12:34:35;14.23;;;6.45;;
43014;SDS011;28637;50.554;7.032;2023-02-10T13:01:12;14.60;;;6.57;;
43014;SDS011;28637;50.554;7.032;2023-02-10T13:06:33;13.88;;;7.72;;
43014;SDS011;28637;50.554;7.032;2023-02-10T13:17:18;16.67;;;8.37;;
43014;SDS011;28637;50.554;7.032;2023-02-10T13:22:42;14.48;;;7.45;;
43014;SDS011;28637;50.554;7.032;2023-02-10T13:38:19;11.65;;;5.85;;
43014;SDS011;28637;50.554;7.032;2023-02-10T13:43:25;12.57;;;6.15;;
43014;SDS011;28637;50.554;7.032;2023-02-10T13:48:31;11.45;;;6.82;;
43014;SDS011;28637;50.554;7.032;2023-02-10T13:58:35;13.53;;;7.17;;
43014;SDS011;28637;50.554;7.032;2023-02-10T14:03:35;11.77;;;7.00;;
43014;SDS011;28637;50.554;7.032;2023-02-10T14:08:40;12.23;;;6.57;;
43014;SDS011;28637;50.554;7.032;2023-02-10T14:13:44;13.25;;;7.30;;
43014;SDS011;28637;50.554;7.032;2023-02-10T14:19:00;11.20;;;6.90;;
43014;SDS011;28637;50.554;7.032;2023-02-10T14:24:05;19.83;;;13.73;;
43014;SDS011;28637;50.554;7.032;2023-02-10T14:29:31;12.57;;;8.18;;
43014;SDS011;28637;50.554;7.032;2023-02-10T14:34:36;12.32;;;7.07;;
43014;SDS011;28637;50.554;7.032;2023-02-10T14:39:38;10.85;;;7.15;;
43014;SDS011;28637;50.554;7.032;2023-02-10T14:44:41;12.35;;;6.97;;
43014;SDS011;28637;50.554;7.032;2023-02-10T14:49:50;10.82;;;6.60;;
43014;SDS011;28637;50.554;7.032;2023-02-10T14:54:52;10.70;;;6.45;;
43014;SDS011;28637;50.554;7.032;2023-02-10T14:59:57;13.77;;;9.57;;
43014;SDS011;28637;50.554;7.032;2023-02-10T15:05:01;10.10;;;6.35;;
43014;SDS011;28637;50.554;7.032;2023-02-10T15:15:31;9.60;;;6.25;;
43014;SDS011;28637;50.554;7.032;2023-02-10T15:20:34;9.68;;;6.40;;
43014;SDS011;28637;50.554;7.032;2023-02-10T15:25:35;9.33;;;6.07;;
43014;SDS011;28637;50.554;7.032;2023-02-10T15:36:10;8.02;;;5.88;;
43014;SDS011;28637;50.554;7.032;2023-02-10T15:46:32;9.90;;;6.20;;
43014;SDS011;28637;50.554;7.032;2023-02-10T15:51:36;9.00;;;5.70;;
43014;SDS011;28637;50.554;7.032;2023-02-10T15:56:41;10.40;;;6.03;;
43014;SDS011;28637;50.554;7.032;2023-02-10T16:01:42;9.47;;;6.10;;
43014;SDS011;28637;50.554;7.032;2023-02-10T16:06:43;7.93;;;5.80;;
43014;SDS011;28637;50.554;7.032;2023-02-10T16:11:43;10.13;;;5.90;;
43014;SDS011;28637;50.554;7.032;2023-02-10T16:16:46;7.53;;;5.15;;
43014;SDS011;28637;50.554;7.032;2023-02-10T16:21:52;9.70;;;6.07;;
43014;SDS011;28637;50.554;7.032;2023-02-10T16:26:56;10.93;;;6.20;;
43014;SDS011;28637;50.554;7.032;2023-02-10T16:31:57;9.50;;;5.83;;
43014;SDS011;28637;50.554;7.032;2023-02-10T16:36:59;9.75;;;5.78;;
43014;SDS011;28637;50.554;7.032;2023-02-10T16:42:00;9.30;;;5.82;;
43014;SDS011;28637;50.554;7.032;2023-02-10T16:47:00;9.13;;;5.32;;
43014;SDS011;28637;50.554;7.032;2023-02-10T16:52:01;10.07;;;6.10;;
43014;SDS011;28637;50.554;7.032;2023-02-10T16:57:02;11.07;;;5.43;;
43014;SDS011;28637;50.554;7.032;2023-02-10T17:02:03;11.45;;;5.13;;
43014;SDS011;28637;50.554;7.032;2023-02-10T17:07:03;9.27;;;5.05;;
43014;SDS011;28637;50.554;7.032;2023-02-10T17:12:04;11.30;;;5.40;;
43014;SDS011;28637;50.554;7.032;2023-02-10T17:17:05;9.70;;;5.07;;
43014;SDS011;28637;50.554;7.032;2023-02-10T17:22:06;11.45;;;4.90;;
43014;SDS011;28637;50.554;7.032;2023-02-10T17:27:08;8.40;;;4.32;;
43014;SDS011;28637;50.554;7.032;2023-02-10T17:32:10;12.10;;;7.20;;
43014;SDS011;28637;50.554;7.032;2023-02-10T17:37:11;9.35;;;5.95;;
43014;SDS011;28637;50.554;7.032;2023-02-10T17:42:12;13.65;;;8.55;;
43014;SDS011;28637;50.554;7.032;2023-02-10T17:47:12;15.38;;;8.20;;
43014;SDS011;28637;50.554;7.032;2023-02-10T17:52:13;7.50;;;4.75;;
43014;SDS011;28637;50.554;7.032;2023-02-10T17:57:14;13.25;;;7.45;;
43014;SDS011;28637;50.554;7.032;2023-02-10T18:02:15;16.88;;;10.48;;
43014;SDS011;28637;50.554;7.032;2023-02-10T18:07:16;13.17;;;5.80;;
43014;SDS011;28637;50.554;7.032;2023-02-10T18:12:17;9.07;;;6.00;;
43014;SDS011;28637;50.554;7.032;2023-02-10T18:17:21;14.10;;;6.63;;
43014;SDS011;28637;50.554;7.032;2023-02-10T18:22:21;11.85;;;5.97;;
43014;SDS011;28637;50.554;7.032;2023-02-10T18:27:22;12.18;;;5.88;;
43014;SDS011;28637;50.554;7.032;2023-02-10T18:32:23;15.93;;;7.05;;
43014;SDS011;28637;50.554;7.032;2023-02-10T18:37:24;14.43;;;6.82;;
43014;SDS011;28637;50.554;7.032;2023-02-10T18:42:24;17.98;;;8.60;;
43014;SDS011;28637;50.554;7.032;2023-02-10T18:47:25;21.52;;;9.65;;
43014;SDS011;28637;50.554;7.032;2023-02-10T18:52:26;28.88;;;10.88;;
43014;SDS011;28637;50.554;7.032;2023-02-10T18:57:27;24.33;;;10.27;;
43014;SDS011;28637;50.554;7.032;2023-02-10T19:02:28;29.45;;;11.32;;
43014;SDS011;28637;50.554;7.032;2023-02-10T19:07:28;26.67;;;11.07;;
43014;SDS011;28637;50.554;7.032;2023-02-10T19:12:32;28.00;;;11.48;;
43014;SDS011;28637;50.554;7.032;2023-02-10T19:17:32;33.38;;;12.10;;
43014;SDS011;28637;50.554;7.032;2023-02-10T19:22:33;31.85;;;12.43;;
43014;SDS011;28637;50.554;7.032;2023-02-10T19:27:34;36.67;;;13.23;;
43014;SDS011;28637;50.554;7.032;2023-02-10T19:32:34;42.33;;;15.75;;
43014;SDS011;28637;50.554;7.032;2023-02-10T19:37:35;44.08;;;15.80;;
43014;SDS011;28637;50.554;7.032;2023-02-10T19:42:37;38.55;;;15.50;;
43014;SDS011;28637;50.554;7.032;2023-02-10T19:47:38;40.22;;;15.65;;
43014;SDS011;28637;50.554;7.032;2023-02-10T19:52:39;38.00;;;15.27;;
43014;SDS011;28637;50.554;7.032;2023-02-10T19:57:39;38.28;;;14.60;;
43014;SDS011;28637;50.554;7.032;2023-02-10T20:02:40;40.95;;;14.80;;
43014;SDS011;28637;50.554;7.032;2023-02-10T20:07:41;41.37;;;16.23;;
43014;SDS011;28637;50.554;7.032;2023-02-10T20:12:42;43.22;;;15.60;;
43014;SDS011;28637;50.554;7.032;2023-02-10T20:17:42;38.75;;;15.07;;
43014;SDS011;28637;50.554;7.032;2023-02-10T20:22:44;39.90;;;16.10;;
43014;SDS011;28637;50.554;7.032;2023-02-10T20:27:47;43.33;;;16.35;;
43014;SDS011;28637;50.554;7.032;2023-02-10T20:32:49;49.88;;;16.55;;
43014;SDS011;28637;50.554;7.032;2023-02-10T20:37:50;42.15;;;16.50;;
43014;SDS011;28637;50.554;7.032;2023-02-10T20:42:51;43.22;;;16.60;;
43014;SDS011;28637;50.554;7.032;2023-02-10T20:47:52;40.55;;;16.35;;
43014;SDS011;28637;50.554;7.032;2023-02-10T20:52:52;38.13;;;15.20;;
43014;SDS011;28637;50.554;7.032;2023-02-10T20:57:53;41.30;;;15.73;;
43014;SDS011;28637;50.554;7.032;2023-02-10T21:02:54;37.63;;;14.85;;
43014;SDS011;28637;50.554;7.032;2023-02-10T21:07:56;38.80;;;15.60;;
43014;SDS011;28637;50.554;7.032;2023-02-10T21:12:56;40.50;;;15.25;;
43014;SDS011;28637;50.554;7.032;2023-02-10T21:17:57;39.22;;;15.05;;
43014;SDS011;28637;50.554;7.032;2023-02-10T21:22:58;37.20;;;14.88;;
43014;SDS011;28637;50.554;7.032;2023-02-10T21:27:58;33.88;;;14.15;;
43014;SDS011;28637;50.554;7.032;2023-02-10T21:32:59;32.00;;;13.98;;
43014;SDS011;28637;50.554;7.032;2023-02-10T21:38:00;32.58;;;13.30;;
43014;SDS011;28637;50.554;7.032;2023-02-10T21:43:00;34.78;;;14.40;;
43014;SDS011;28637;50.554;7.032;2023-02-10T21:48:01;28.40;;;13.13;;
43014;SDS011;28637;50.554;7.032;2023-02-10T21:53:02;31.45;;;12.45;;
43014;SDS011;28637;50.554;7.032;2023-02-10T21:58:02;31.70;;;12.82;;
43014;SDS011;28637;50.554;7.032;2023-02-10T22:03:03;30.10;;;13.40;;
43014;SDS011;28637;50.554;7.032;2023-02-10T22:08:04;29.03;;;13.47;;
43014;SDS011;28637;50.554;7.032;2023-02-10T22:13:05;36.60;;;14.07;;
43014;SDS011;28637;50.554;7.032;2023-02-10T22:18:05;40.88;;;16.92;;
43014;SDS011;28637;50.554;7.032;2023-02-10T22:23:06;32.10;;;13.55;;
43014;SDS011;28637;50.554;7.032;2023-02-10T22:28:07;25.67;;;11.05;;
43014;SDS011;28637;50.554;7.032;2023-02-10T22:33:07;24.90;;;12.30;;
43014;SDS011;28637;50.554;7.032;2023-02-10T22:38:08;27.55;;;12.38;;
43014;SDS011;28637;50.554;7.032;2023-02-10T22:43:09;28.30;;;12.65;;
43014;SDS011;28637;50.554;7.032;2023-02-10T22:48:10;25.60;;;11.97;;
43014;SDS011;28637;50.554;7.032;2023-02-10T22:53:10;25.70;;;11.45;;
43014;SDS011;28637;50.554;7.032;2023-02-10T22:58:11;24.38;;;11.30;;
43014;SDS011;28637;50.554;7.032;2023-02-10T23:03:12;23.90;;;11.48;;
43014;SDS011;28637;50.554;7.032;2023-02-10T23:08:12;28.65;;;14.32;;
43014;SDS011;28637;50.554;7.032;2023-02-10T23:13:13;28.48;;;13.02;;
43014;SDS011;28637;50.554;7.032;2023-02-10T23:18:14;29.48;;;12.88;;
43014;SDS011;28637;50.554;7.032;2023-02-10T23:23:14;30.00;;;13.20;;
43014;SDS011;28637;50.554;7.032;2023-02-10T23:28:15;31.02;;;13.18;;
43014;SDS011;28637;50.554;7.032;2023-02-10T23:33:16;28.52;;;12.52;;
43014;SDS011;28637;50.554;7.032;2023-02-10T23:38:17;25.98;;;12.43;;
43014;SDS011;28637;50.554;7.032;2023-02-10T23:43:19;28.73;;;12.75;;
43014;SDS011;28637;50.554;7.032;2023-02-10T23:48:20;26.08;;;12.93;;
43014;SDS011;28637;50.554;7.032;2023-02-10T23:53:20;26.50;;;13.05;;
43014;SDS011;28637;50.554;7.032;2023-02-10T23:58:21;28.13;;;13.10;;
